createdAt,value
2018-05-11T00:02:01.472Z,99.90
2018-05-11T00:04:29.870Z,99.90
2018-05-11T00:06:58.209Z,99.90
2018-05-11T00:09:25.834Z,99.90
2018-05-11T00:11:53.450Z,99.90
2018-05-11T00:14:21.846Z,99.90
2018-05-11T00:16:49.470Z,99.90
2018-05-11T00:19:17.079Z,99.90
2018-05-11T00:21:44.679Z,99.90
2018-05-11T00:24:13.052Z,99.90
2018-05-11T00:26:40.699Z,99.90
2018-05-11T00:29:08.334Z,99.90
2018-05-11T00:31:35.949Z,99.90
2018-05-11T00:34:03.560Z,99.90
2018-05-11T00:36:31.175Z,99.90
2018-05-11T00:38:58.786Z,99.90
2018-05-11T00:41:26.400Z,99.90
2018-05-11T00:43:54.016Z,99.90
2018-05-11T00:46:21.617Z,99.90
2018-05-11T00:48:49.223Z,99.90
2018-05-11T00:51:16.871Z,99.90
2018-05-11T00:53:44.476Z,99.90
2018-05-11T00:56:12.881Z,99.90
2018-05-11T00:58:40.498Z,99.90
2018-05-11T01:01:08.120Z,99.90
2018-05-11T01:03:36.492Z,99.90
2018-05-11T01:06:04.880Z,99.90
2018-05-11T01:08:32.465Z,99.90
2018-05-11T01:11:00.098Z,99.90
2018-05-11T01:13:28.681Z,99.90
2018-05-11T01:15:57.991Z,99.90
2018-05-11T01:18:25.610Z,99.90
2018-05-11T01:20:53.231Z,99.90
2018-05-11T01:23:20.881Z,99.90
2018-05-11T01:25:48.557Z,99.90
2018-05-11T01:28:16.211Z,99.90
2018-05-11T01:30:43.848Z,99.90
2018-05-11T01:33:11.531Z,99.90
2018-05-11T01:35:39.181Z,99.90
2018-05-11T01:38:07.020Z,99.90
2018-05-11T01:40:35.434Z,99.90
2018-05-11T01:43:03.061Z,99.90
2018-05-11T01:45:32.026Z,99.90
2018-05-11T01:47:59.633Z,99.90
2018-05-11T01:50:27.835Z,99.90
2018-05-11T01:52:55.601Z,99.90
2018-05-11T01:55:23.677Z,99.90
2018-05-11T01:57:51.340Z,99.90
2018-05-11T02:00:18.933Z,99.90
2018-05-11T02:02:47.920Z,99.90
2018-05-11T02:05:15.623Z,99.90
2018-05-11T02:07:43.240Z,99.90
2018-05-11T02:10:11.120Z,99.90
2018-05-11T02:12:39.591Z,99.90
2018-05-11T02:15:07.946Z,99.90
2018-05-11T02:17:35.590Z,99.90
2018-05-11T02:20:03.269Z,99.90
2018-05-11T02:22:30.919Z,99.90
2018-05-11T02:24:58.541Z,99.90
2018-05-11T02:27:26.920Z,99.90
2018-05-11T02:29:55.377Z,99.90
2018-05-11T02:32:24.138Z,99.90
2018-05-11T02:34:51.760Z,99.90
2018-05-11T02:37:19.362Z,99.90
2018-05-11T02:39:46.961Z,99.90
2018-05-11T02:42:14.621Z,99.90
2018-05-11T02:44:42.245Z,99.90
2018-05-11T02:47:09.863Z,99.90
2018-05-11T02:49:37.491Z,99.90
2018-05-11T02:52:05.864Z,99.90
2018-05-11T02:54:34.289Z,99.90
2018-05-11T02:57:01.886Z,99.90
2018-05-11T02:59:29.509Z,99.90
2018-05-11T03:01:57.119Z,99.90
2018-05-11T03:04:25.558Z,99.90
2018-05-11T03:06:53.186Z,99.90
2018-05-11T03:09:20.776Z,99.90
2018-05-11T03:11:48.412Z,99.90
2018-05-11T03:14:17.237Z,99.90
2018-05-11T03:16:44.849Z,99.90
2018-05-11T03:19:12.955Z,99.90
2018-05-11T03:21:40.558Z,99.90
2018-05-11T03:24:09.547Z,99.90
2018-05-11T03:26:37.945Z,99.90
2018-05-11T03:29:06.572Z,99.90
2018-05-11T03:31:35.017Z,99.90
2018-05-11T03:34:02.655Z,99.90
2018-05-11T03:36:31.759Z,99.90
2018-05-11T03:39:00.173Z,99.90
2018-05-11T03:41:27.804Z,99.90
2018-05-11T03:43:55.459Z,99.90
2018-05-11T03:46:23.850Z,99.90
2018-05-11T03:48:51.450Z,99.90
2018-05-11T03:51:19.080Z,99.90
2018-05-11T03:53:47.559Z,99.90
2018-05-11T03:56:15.167Z,99.90
2018-05-11T03:58:42.821Z,99.90
2018-05-11T04:01:22.270Z,99.90
2018-05-11T04:04:01.821Z,99.90
2018-05-11T04:06:43.328Z,99.90
2018-05-11T04:09:10.948Z,99.90
2018-05-11T04:11:38.595Z,99.90
2018-05-11T04:14:06.212Z,99.90
2018-05-11T04:16:36.652Z,99.90
2018-05-11T04:19:04.309Z,99.90
2018-05-11T04:21:31.988Z,99.90
2018-05-11T04:23:59.609Z,99.90
2018-05-11T04:26:28.630Z,99.90
2018-05-11T04:28:57.448Z,99.90
2018-05-11T04:31:27.168Z,99.90
2018-05-11T04:33:54.772Z,99.90
2018-05-11T04:36:23.268Z,99.90
2018-05-11T04:38:51.383Z,99.90
2018-05-11T04:41:19.014Z,99.90
2018-05-11T04:43:47.143Z,99.90
2018-05-11T04:46:15.530Z,99.90
2018-05-11T04:48:44.921Z,99.90
2018-05-11T04:51:13.297Z,99.90
2018-05-11T04:53:42.360Z,99.90
2018-05-11T04:56:10.056Z,99.90
2018-05-11T04:58:39.096Z,99.90
2018-05-11T05:01:06.730Z,99.90
2018-05-11T05:03:34.305Z,99.90
2018-05-11T05:06:01.930Z,99.90
2018-05-11T05:08:31.349Z,99.90
2018-05-11T05:10:58.983Z,99.90
2018-05-11T05:13:27.632Z,99.90
2018-05-11T05:15:55.298Z,99.90
2018-05-11T05:18:23.705Z,99.90
2018-05-11T05:20:52.206Z,99.90
2018-05-11T05:23:19.769Z,99.90
2018-05-11T05:25:47.404Z,99.90
2018-05-11T05:28:16.608Z,99.90
2018-05-11T05:30:45.919Z,99.90
2018-05-11T05:33:15.495Z,99.90
2018-05-11T05:35:43.206Z,99.90
2018-05-11T05:38:10.832Z,99.90
2018-05-11T05:40:39.177Z,99.90
2018-05-11T05:43:06.849Z,99.90
2018-05-11T05:45:37.381Z,99.90
2018-05-11T05:48:05.969Z,99.90
2018-05-11T05:50:34.375Z,99.90
2018-05-11T05:53:01.988Z,99.90
2018-05-11T05:55:29.627Z,99.90
2018-05-11T05:57:59.616Z,99.90
2018-05-11T06:00:27.277Z,99.90
2018-05-11T06:02:55.411Z,99.90
2018-05-11T06:05:23.017Z,99.90
2018-05-11T06:07:50.617Z,99.90
2018-05-11T06:10:18.571Z,99.90
2018-05-11T06:12:46.234Z,99.90
2018-05-11T06:15:13.865Z,99.90
2018-05-11T06:17:41.495Z,99.90
2018-05-11T06:20:09.932Z,99.90
2018-05-11T06:22:37.579Z,99.90
2018-05-11T06:25:05.170Z,99.90
2018-05-11T06:27:34.540Z,99.90
2018-05-11T06:30:02.200Z,99.90
2018-05-11T06:32:29.810Z,99.90
2018-05-11T06:34:57.480Z,99.90
2018-05-11T06:37:25.949Z,99.90
2018-05-11T06:39:53.655Z,99.90
2018-05-11T06:42:21.265Z,99.90
2018-05-11T06:44:48.876Z,99.90
2018-05-11T06:47:16.597Z,99.90
2018-05-11T06:49:45.025Z,99.90
2018-05-11T06:52:12.665Z,99.90
2018-05-11T06:54:40.304Z,99.90
2018-05-11T06:57:08.658Z,99.90
2018-05-11T06:59:36.304Z,99.90
2018-05-11T07:02:03.953Z,99.90
2018-05-11T07:04:31.594Z,99.90
2018-05-11T07:06:59.179Z,99.90
2018-05-11T07:09:26.776Z,99.90
2018-05-11T07:11:55.180Z,99.90
2018-05-11T07:14:22.783Z,99.90
2018-05-11T07:16:50.409Z,99.90
2018-05-11T07:19:18.116Z,99.90
2018-05-11T07:21:45.718Z,99.90
2018-05-11T07:24:13.317Z,99.90
2018-05-11T07:26:40.893Z,99.90
2018-05-11T07:29:08.508Z,99.90
2018-05-11T07:31:36.202Z,99.90
2018-05-11T07:34:03.813Z,99.90
2018-05-11T07:36:32.206Z,99.90
2018-05-11T07:38:59.796Z,99.90
2018-05-11T07:41:27.388Z,99.90
2018-05-11T07:43:55.016Z,99.90
2018-05-11T07:46:22.661Z,99.90
2018-05-11T07:48:50.320Z,99.90
2018-05-11T07:51:17.949Z,99.90
2018-05-11T07:53:46.292Z,99.90
2018-05-11T07:56:13.869Z,99.90
2018-05-11T07:58:41.493Z,99.90
2018-05-11T08:01:09.119Z,99.90
2018-05-11T08:03:36.706Z,99.40
2018-05-11T08:06:04.304Z,98.40
2018-05-11T08:08:31.929Z,98.10
2018-05-11T08:10:59.549Z,94.90
2018-05-11T08:13:27.948Z,96.30
2018-05-11T08:15:55.569Z,96.30
2018-05-11T08:18:23.968Z,93.00
2018-05-11T08:20:51.585Z,92.90
2018-05-11T08:23:19.190Z,91.90
2018-05-11T08:25:46.839Z,92.10
2018-05-11T08:28:15.190Z,88.00
2018-05-11T08:30:42.785Z,87.90
2018-05-11T08:33:11.205Z,78.60
2018-05-11T08:35:38.846Z,78.30
2018-05-11T08:38:06.538Z,75.30
2018-05-11T08:40:34.184Z,80.30
2018-05-11T08:43:01.782Z,79.10
2018-05-11T08:45:29.392Z,81.70
2018-05-11T08:47:57.009Z,83.40
2018-05-11T08:50:25.409Z,72.00
2018-05-11T08:52:53.021Z,71.80
2018-05-11T08:55:20.650Z,68.70
2018-05-11T08:57:48.258Z,67.40
2018-05-11T09:00:15.923Z,68.20
2018-05-11T09:02:44.353Z,67.30
2018-05-11T09:05:12.000Z,66.50
2018-05-11T09:07:42.550Z,65.60
2018-05-11T09:10:10.167Z,65.60
2018-05-11T09:12:38.530Z,68.00
2018-05-11T09:15:06.209Z,67.90
2018-05-11T09:17:34.579Z,66.50
2018-05-11T09:20:03.022Z,69.30
2018-05-11T09:22:30.668Z,69.20
2018-05-11T09:24:58.288Z,67.50
2018-05-11T09:27:27.265Z,65.70
2018-05-11T09:29:55.661Z,66.90
2018-05-11T09:32:23.360Z,66.70
2018-05-11T09:34:50.977Z,65.20
2018-05-11T09:37:19.380Z,67.80
2018-05-11T09:39:47.557Z,67.80
2018-05-11T09:42:15.884Z,69.30
2018-05-11T09:44:43.486Z,69.20
2018-05-11T09:47:11.141Z,67.00
2018-05-11T09:49:38.739Z,66.10
2018-05-11T09:52:06.361Z,65.90
2018-05-11T09:54:33.944Z,64.40
2018-05-11T09:57:01.542Z,65.70
2018-05-11T09:59:29.201Z,65.70
2018-05-11T10:01:56.823Z,65.10
2018-05-11T10:04:24.441Z,66.70
2018-05-11T10:06:52.882Z,64.90
2018-05-11T10:09:20.508Z,64.90
2018-05-11T10:11:48.140Z,65.40
2018-05-11T10:14:16.513Z,68.30
2018-05-11T10:16:44.893Z,69.60
2018-05-11T10:19:13.238Z,70.10
2018-05-11T10:21:40.859Z,70.00
2018-05-11T10:24:08.519Z,70.80
2018-05-11T10:26:36.051Z,71.30
2018-05-11T10:29:04.421Z,69.40
2018-05-11T10:31:32.786Z,71.70
2018-05-11T10:34:00.385Z,71.60
2018-05-11T10:36:28.018Z,71.80
2018-05-11T10:38:56.380Z,71.80
2018-05-11T10:41:23.958Z,71.70
2018-05-11T10:43:52.339Z,61.80
2018-05-11T10:46:20.691Z,62.40
2018-05-11T10:48:48.366Z,62.40
2018-05-11T10:51:15.981Z,62.30
2018-05-11T10:53:43.585Z,65.10
2018-05-11T10:56:11.208Z,66.20
2018-05-11T10:58:38.807Z,63.20
2018-05-11T11:01:06.426Z,60.00
2018-05-11T11:03:34.011Z,60.50
2018-05-11T11:06:01.645Z,61.30
2018-05-11T11:08:29.235Z,62.30
2018-05-11T11:10:56.834Z,61.90
2018-05-11T11:13:24.451Z,62.00
2018-05-11T11:15:52.045Z,63.60
2018-05-11T11:18:20.425Z,65.60
2018-05-11T11:20:48.794Z,65.40
2018-05-11T11:23:17.175Z,67.70
2018-05-11T11:25:45.531Z,65.70
2018-05-11T11:28:13.139Z,65.60
2018-05-11T11:30:40.740Z,69.30
2018-05-11T11:33:08.335Z,65.00
2018-05-11T11:35:36.689Z,64.10
2018-05-11T11:38:05.110Z,63.20
2018-05-11T11:40:32.781Z,63.10
2018-05-11T11:43:00.368Z,61.70
2018-05-11T11:45:27.971Z,62.50
2018-05-11T11:47:56.317Z,63.90
2018-05-11T11:50:23.919Z,63.80
2018-05-11T11:52:51.524Z,65.30
2018-05-11T11:55:19.181Z,62.90
2018-05-11T11:57:46.816Z,56.50
2018-05-11T12:00:14.465Z,54.70
2018-05-11T12:02:42.101Z,52.30
2018-05-11T12:05:10.478Z,53.00
2018-05-11T12:07:38.850Z,52.80
2018-05-11T12:10:07.219Z,54.60
2018-05-11T12:12:34.850Z,54.50
2018-05-11T12:15:02.452Z,53.60
2018-05-11T12:17:30.847Z,53.90
2018-05-11T12:19:58.470Z,53.80
2018-05-11T12:22:26.052Z,52.60
2018-05-11T12:24:54.391Z,51.70
2018-05-11T12:27:21.963Z,51.70
2018-05-11T12:29:49.552Z,51.00
2018-05-11T12:32:17.925Z,49.80
2018-05-11T12:34:47.177Z,49.20
2018-05-11T12:37:15.005Z,49.10
2018-05-11T12:39:42.598Z,50.20
2018-05-11T12:42:10.189Z,48.80
2018-05-11T12:44:37.786Z,49.20
2018-05-11T12:47:05.371Z,48.80
2018-05-11T12:49:32.998Z,47.10
2018-05-11T12:52:00.601Z,46.10
2018-05-11T12:54:28.190Z,46.90
2018-05-11T12:56:55.790Z,44.80
2018-05-11T12:59:23.389Z,44.90
2018-05-11T13:01:50.970Z,45.50
2018-05-11T13:04:18.592Z,45.20
2018-05-11T13:06:46.240Z,44.40
2018-05-11T13:09:13.828Z,44.70
2018-05-11T13:11:41.458Z,44.50
2018-05-11T13:14:09.061Z,44.40
2018-05-11T13:16:36.656Z,45.30
2018-05-11T13:19:04.311Z,44.80
2018-05-11T13:21:32.669Z,43.00
2018-05-11T13:24:00.258Z,43.00
2018-05-11T13:26:27.857Z,41.50
2018-05-11T13:28:55.449Z,42.30
2018-05-11T13:31:23.033Z,43.50
2018-05-11T13:33:50.660Z,42.60
2018-05-11T13:36:18.250Z,42.90
2018-05-11T13:38:45.920Z,42.90
2018-05-11T13:41:13.523Z,42.70
2018-05-11T13:43:41.139Z,43.80
2018-05-11T13:46:08.737Z,41.90
2018-05-11T13:48:36.355Z,43.20
2018-05-11T13:51:03.952Z,43.20
2018-05-11T13:53:31.550Z,44.80
2018-05-11T13:55:59.940Z,43.40
2018-05-11T13:58:28.310Z,43.50
2018-05-11T14:00:56.679Z,45.00
2018-05-11T14:03:24.280Z,45.00
2018-05-11T14:05:51.860Z,45.90
2018-05-11T14:08:19.482Z,44.50
2018-05-11T14:10:47.151Z,44.70
2018-05-11T14:13:14.780Z,44.80
2018-05-11T14:15:43.147Z,43.20
2018-05-11T14:18:10.778Z,43.20
2018-05-11T14:20:38.391Z,43.00
2018-05-11T14:23:06.770Z,44.90
2018-05-11T14:25:35.166Z,46.50
2018-05-11T14:28:02.771Z,46.50
2018-05-11T14:30:30.419Z,45.50
2018-05-11T14:32:58.806Z,44.60
2018-05-11T14:35:26.400Z,44.60
2018-05-11T14:37:54.771Z,45.70
2018-05-11T14:40:22.380Z,45.70
2018-05-11T14:42:49.985Z,45.30
2018-05-11T14:45:17.608Z,46.20
2018-05-11T14:47:45.224Z,47.30
2018-05-11T14:50:13.594Z,47.20
2018-05-11T14:52:41.973Z,48.60
2018-05-11T14:55:10.388Z,48.90
2018-05-11T14:57:38.012Z,48.80
2018-05-11T15:00:06.367Z,50.10
2018-05-11T15:02:33.982Z,50.10
2018-05-11T15:05:01.645Z,50.30
2018-05-11T15:07:29.271Z,48.80
2018-05-11T15:09:57.652Z,49.40
2018-05-11T15:12:26.030Z,50.50
2018-05-11T15:14:54.465Z,50.00
2018-05-11T15:17:22.109Z,49.90
2018-05-11T15:19:49.698Z,50.60
2018-05-11T15:22:17.314Z,50.60
2018-05-11T15:24:44.894Z,50.40
2018-05-11T15:27:12.572Z,51.00
2018-05-11T15:29:40.193Z,50.70
2018-05-11T15:32:07.819Z,51.80
2018-05-11T15:34:36.200Z,52.30
2018-05-11T15:37:03.881Z,52.30
2018-05-11T15:39:31.470Z,52.50
2018-05-11T15:41:59.110Z,52.20
2018-05-11T15:44:26.737Z,52.80
2018-05-11T15:46:54.344Z,52.90
2018-05-11T15:49:21.961Z,54.30
2018-05-11T15:51:50.308Z,56.90
2018-05-11T15:54:17.900Z,56.30
2018-05-11T15:56:46.262Z,58.20
2018-05-11T15:59:13.882Z,58.20
2018-05-11T16:01:41.499Z,59.30
2018-05-11T16:04:09.869Z,57.90
2018-05-11T16:06:37.466Z,57.90
2018-05-11T16:09:05.091Z,58.90
2018-05-11T16:11:32.710Z,58.70
2018-05-11T16:14:05.128Z,58.80
2018-05-11T16:16:41.324Z,62.90
2018-05-11T16:19:10.649Z,62.40
2018-05-11T16:21:40.968Z,62.60
2018-05-11T16:24:09.954Z,65.30
2018-05-11T16:26:38.389Z,64.60
2018-05-11T16:29:06.511Z,63.60
2018-05-11T16:31:36.951Z,63.10
2018-05-11T16:34:07.803Z,63.80
2018-05-11T16:36:38.110Z,63.60
2018-05-11T16:39:06.948Z,65.50
2018-05-11T16:41:35.856Z,65.50
2018-05-11T16:44:06.600Z,66.30
2018-05-11T16:46:35.962Z,68.50
2018-05-11T16:49:05.443Z,68.40
2018-05-11T16:51:34.218Z,73.40
2018-05-11T16:54:01.816Z,72.50
2018-05-11T16:56:30.303Z,73.60
2018-05-11T16:58:58.700Z,74.70
2018-05-11T17:01:26.340Z,74.60
2018-05-11T17:03:54.691Z,76.70
2018-05-11T17:06:22.308Z,76.60
2018-05-11T17:08:49.932Z,77.00
2018-05-11T17:11:18.340Z,77.40
2018-05-11T17:13:45.970Z,77.30
2018-05-11T17:16:14.410Z,80.30
2018-05-11T17:18:42.020Z,80.30
2018-05-11T17:21:09.629Z,82.80
2018-05-11T17:23:37.261Z,85.10
2018-05-11T17:26:04.920Z,86.00
2018-05-11T17:28:32.909Z,85.40
2018-05-11T17:31:00.545Z,84.70
2018-05-11T17:33:28.140Z,87.80
2018-05-11T17:35:56.809Z,86.50
2018-05-11T17:38:25.560Z,87.20
2018-05-11T17:40:56.352Z,87.80
2018-05-11T17:43:28.347Z,88.80
2018-05-11T17:45:57.597Z,89.10
2018-05-11T17:48:25.382Z,88.90
2018-05-11T17:50:53.009Z,88.00
2018-05-11T17:53:21.845Z,88.20
2018-05-11T17:55:53.832Z,89.80
2018-05-11T17:58:22.144Z,89.80
2018-05-11T18:00:51.821Z,89.60
2018-05-11T18:03:19.554Z,90.40
2018-05-11T18:05:53.031Z,91.30
2018-05-11T18:08:22.002Z,91.20
2018-05-11T18:10:50.842Z,90.90
2018-05-11T18:18:53.214Z,93.90
2018-05-11T18:21:20.905Z,93.80
2018-05-11T18:23:55.174Z,94.50
2018-05-11T18:26:23.220Z,95.30
2018-05-11T18:28:51.535Z,95.70
2018-05-11T18:31:19.180Z,97.40
2018-05-11T18:33:46.799Z,98.30
2018-05-11T18:36:15.192Z,99.30
2018-05-11T18:38:42.809Z,99.30
2018-05-11T18:41:10.420Z,99.60
2018-05-11T18:43:38.053Z,99.70
2018-05-11T18:46:06.550Z,99.90
2018-05-11T18:48:34.159Z,99.90
2018-05-11T18:51:01.846Z,99.90
2018-05-11T18:53:29.701Z,99.90
2018-05-11T18:55:57.140Z,99.90
2018-05-11T18:58:24.751Z,99.90
2018-05-11T19:00:52.385Z,99.90
2018-05-11T19:03:20.210Z,99.90
2018-05-11T19:05:47.836Z,99.90
2018-05-11T19:08:15.496Z,99.90
2018-05-11T19:10:43.385Z,99.90
2018-05-11T19:13:11.020Z,99.90
2018-05-11T19:15:39.698Z,99.90
2018-05-11T19:18:08.742Z,99.90
2018-05-11T19:20:36.428Z,99.90
2018-05-11T19:23:04.043Z,99.90
2018-05-11T19:25:31.738Z,99.90
2018-05-11T19:27:59.697Z,99.90
2018-05-11T19:30:27.314Z,99.90
2018-05-11T19:32:55.720Z,99.90
2018-05-11T19:35:23.378Z,99.90
2018-05-11T19:37:51.297Z,99.90
2018-05-11T19:40:19.745Z,99.90
2018-05-11T19:42:47.872Z,99.90
2018-05-11T19:45:15.516Z,99.90
2018-05-11T19:47:43.867Z,99.90
2018-05-11T19:50:11.520Z,99.90
2018-05-11T19:52:39.131Z,99.90
2018-05-11T19:55:06.828Z,99.90
2018-05-11T19:57:34.426Z,99.90
2018-05-11T20:00:02.160Z,99.90
2018-05-11T20:02:29.750Z,99.90
2018-05-11T20:04:59.094Z,99.90
2018-05-11T20:07:26.687Z,99.90
2018-05-11T20:09:54.441Z,99.90
2018-05-11T20:12:22.330Z,99.90
2018-05-11T20:14:49.956Z,99.90
2018-05-11T20:17:17.587Z,99.90
2018-05-11T20:19:45.189Z,99.90
2018-05-11T20:22:12.875Z,99.90
2018-05-11T20:24:40.518Z,99.90
2018-05-11T20:27:08.936Z,99.90
2018-05-11T20:29:37.380Z,99.90
2018-05-11T20:32:05.138Z,99.90
2018-05-11T20:34:32.817Z,99.90
2018-05-11T20:37:01.740Z,99.90
2018-05-11T20:39:29.368Z,99.90
2018-05-11T20:41:59.105Z,99.90
2018-05-11T20:44:28.282Z,99.90
2018-05-11T20:46:55.960Z,99.90
2018-05-11T20:49:24.367Z,99.90
2018-05-11T20:51:53.300Z,99.90
2018-05-11T20:54:20.914Z,99.90
2018-05-11T20:56:49.223Z,99.90
2018-05-11T20:59:16.888Z,99.90
2018-05-11T21:01:45.910Z,99.90
2018-05-11T21:04:14.279Z,99.90
2018-05-11T21:06:42.761Z,99.90
2018-05-11T21:09:10.390Z,99.90
2018-05-11T21:11:38.065Z,99.90
2018-05-11T21:14:05.730Z,99.90
2018-05-11T21:16:33.390Z,99.90
2018-05-11T21:19:01.050Z,99.90
2018-05-11T21:21:30.404Z,99.90
2018-05-11T21:23:59.279Z,99.90
2018-05-11T21:26:27.821Z,99.90
2018-05-11T21:28:58.571Z,99.90
2018-05-11T21:31:26.237Z,99.90
2018-05-11T21:33:54.721Z,99.90
2018-05-11T21:36:25.799Z,99.90
2018-05-11T21:38:59.260Z,99.90
2018-05-11T21:41:27.690Z,99.90
2018-05-11T21:43:55.281Z,99.90
2018-05-11T21:46:22.939Z,99.90
2018-05-11T21:48:50.563Z,99.90
2018-05-11T21:51:18.177Z,99.90
2018-05-11T21:53:47.500Z,99.90
2018-05-11T21:56:15.125Z,99.90
2018-05-11T21:58:42.792Z,99.90
2018-05-11T22:01:10.401Z,99.90
2018-05-11T22:03:38.949Z,99.90
2018-05-11T22:06:07.375Z,99.90
2018-05-11T22:08:36.376Z,99.90
2018-05-11T22:11:04.965Z,99.90
2018-05-11T22:13:32.700Z,99.90
2018-05-11T22:16:00.876Z,99.90
2018-05-11T22:18:28.542Z,99.90
2018-05-11T22:20:56.177Z,99.90
2018-05-11T22:23:23.874Z,99.90
2018-05-11T22:25:51.587Z,99.90
2018-05-11T22:28:20.008Z,99.90
2018-05-11T22:30:47.650Z,99.90
2018-05-11T22:33:15.248Z,99.90
2018-05-11T22:35:42.856Z,99.90
2018-05-11T22:38:10.512Z,99.90
2018-05-11T22:40:38.125Z,99.90
2018-05-11T22:43:05.771Z,99.90
2018-05-11T22:45:33.371Z,99.90
2018-05-11T22:48:01.759Z,99.90
2018-05-11T22:50:30.161Z,99.90
2018-05-11T22:52:57.781Z,99.90
2018-05-11T22:55:25.439Z,99.90
2018-05-11T22:57:53.063Z,99.90
2018-05-11T23:00:27.444Z,99.90
2018-05-11T23:02:55.806Z,99.90
2018-05-11T23:05:24.191Z,99.90
2018-05-11T23:07:52.557Z,99.90
2018-05-11T23:10:20.939Z,99.90
2018-05-11T23:12:49.356Z,99.90
2018-05-11T23:15:16.979Z,99.90
2018-05-11T23:17:45.349Z,99.90
2018-05-11T23:20:13.008Z,99.90
2018-05-11T23:22:40.620Z,99.90
2018-05-11T23:25:08.260Z,99.90
2018-05-11T23:27:35.896Z,99.90
2018-05-11T23:30:04.299Z,99.90
2018-05-11T23:32:31.920Z,99.90
2018-05-11T23:34:59.561Z,99.90
2018-05-11T23:37:27.167Z,99.90
2018-05-11T23:39:55.550Z,99.90
2018-05-11T23:42:23.931Z,99.90
2018-05-11T23:44:52.311Z,99.90
2018-05-11T23:47:19.934Z,99.90
2018-05-11T23:49:47.655Z,99.90
2018-05-11T23:52:15.191Z,99.90
2018-05-11T23:54:43.561Z,99.90
2018-05-11T23:57:11.970Z,99.90
2018-05-11T23:59:39.582Z,99.90
